createdAt,value
2023-04-17T17:40:36.050Z,3.42
2023-04-17T17:43:02.996Z,2.45
2023-04-17T17:45:29.867Z,2.20
2023-04-17T17:47:56.798Z,2.42
2023-04-17T17:50:23.748Z,2.80
2023-04-17T17:52:50.617Z,2.83
2023-04-17T17:55:17.851Z,5.03
2023-04-17T17:57:49.232Z,2.13
2023-04-17T18:00:17.185Z,8.27
2023-04-17T18:02:44.279Z,1.52
2023-04-17T18:05:11.323Z,2.05
2023-04-17T18:07:38.219Z,1.30
2023-04-17T18:10:06.095Z,2.55
2023-04-17T18:12:32.974Z,1.98
2023-04-17T18:15:01.212Z,4.50
2023-04-17T18:17:28.124Z,2.85
2023-04-17T18:19:55.009Z,1.38
2023-04-17T18:22:21.877Z,2.83
2023-04-17T18:24:48.745Z,4.90
2023-04-17T18:27:15.577Z,7.15
2023-04-17T18:29:42.436Z,4.68
2023-04-17T18:32:10.866Z,3.15
2023-04-17T18:34:37.757Z,2.78
2023-04-17T18:37:04.597Z,5.40
2023-04-17T18:39:31.470Z,5.88
2023-04-17T18:41:58.601Z,5.07
2023-04-17T18:44:25.485Z,7.13
2023-04-17T18:46:52.380Z,6.43
2023-04-17T18:49:20.673Z,7.95
2023-04-17T18:51:47.552Z,10.10
2023-04-17T18:54:20.080Z,8.63
2023-04-17T18:56:46.972Z,14.98
2023-04-17T18:59:16.601Z,4.93
2023-04-17T19:01:43.489Z,7.07
2023-04-17T19:04:10.475Z,6.43
2023-04-17T19:06:38.784Z,9.95
2023-04-17T19:09:05.648Z,4.43
2023-04-17T19:11:32.742Z,35.83
2023-04-17T19:13:59.678Z,19.15
2023-04-17T19:16:26.576Z,24.08
2023-04-17T19:18:53.676Z,26.80
2023-04-17T19:21:20.541Z,16.35
2023-04-17T19:23:48.784Z,16.02
2023-04-17T19:26:15.678Z,30.67
2023-04-17T19:28:42.658Z,31.55
2023-04-17T19:31:09.556Z,23.13
2023-04-17T19:33:36.931Z,29.33
2023-04-17T19:36:03.992Z,24.52
2023-04-17T19:38:30.870Z,23.65
2023-04-17T19:41:12.313Z,14.48
2023-04-17T19:43:39.245Z,14.48
2023-04-17T19:46:06.124Z,12.15
2023-04-17T19:48:33.022Z,13.32
2023-04-17T19:50:59.921Z,15.90
2023-04-17T19:53:29.934Z,7.18
2023-04-17T19:55:56.998Z,15.82
2023-04-17T19:58:25.347Z,10.10
2023-04-17T20:00:52.221Z,10.52
2023-04-17T20:03:19.203Z,9.20
2023-04-17T20:05:46.170Z,13.18
2023-04-17T20:08:13.083Z,13.23
2023-04-17T20:10:40.026Z,12.77
2023-04-17T20:13:06.910Z,10.63
2023-04-17T20:15:35.228Z,13.23
2023-04-17T20:18:02.177Z,10.88
2023-04-17T20:20:29.187Z,9.25
2023-04-17T20:22:56.131Z,13.05
2023-04-17T20:25:22.988Z,7.28
2023-04-17T20:27:49.847Z,10.35
2023-04-17T20:30:16.740Z,12.77
2023-04-17T20:32:45.033Z,14.00
2023-04-17T20:35:12.114Z,10.75
2023-04-17T20:37:38.982Z,13.13
2023-04-17T20:40:07.155Z,13.30
2023-04-17T20:42:34.006Z,11.88
2023-04-17T20:45:00.928Z,10.80
2023-04-17T20:47:27.845Z,13.27
2023-04-17T20:49:56.120Z,12.90
2023-04-17T20:52:22.990Z,11.32
2023-04-17T20:54:49.828Z,7.55
2023-04-17T20:57:16.688Z,10.65
2023-04-17T20:59:43.572Z,9.00
2023-04-17T21:02:10.545Z,13.43
2023-04-17T21:04:37.481Z,9.00
2023-04-17T21:07:05.730Z,13.52
2023-04-17T21:09:33.311Z,10.05
2023-04-17T21:12:00.181Z,8.00
2023-04-17T21:14:27.050Z,8.63
2023-04-17T21:16:53.931Z,8.98
2023-04-17T21:19:20.825Z,10.20
2023-04-17T21:21:47.691Z,12.88
2023-04-17T21:24:15.925Z,7.72
2023-04-17T21:26:42.746Z,6.13
2023-04-17T21:29:09.635Z,11.50
2023-04-17T21:31:36.542Z,6.43
2023-04-17T21:34:03.448Z,9.00
2023-04-17T21:36:30.295Z,7.75
2023-04-17T21:38:57.161Z,5.85
2023-04-17T21:41:25.480Z,5.90
2023-04-17T21:43:53.110Z,8.70
2023-04-17T21:46:20.048Z,6.80
2023-04-17T21:48:46.968Z,5.65
2023-04-17T21:51:13.836Z,11.98
2023-04-17T21:53:40.703Z,10.88
2023-04-17T21:56:08.593Z,6.75
2023-04-17T21:58:36.840Z,7.25
2023-04-17T22:01:03.776Z,7.68
2023-04-17T22:03:30.684Z,5.50
2023-04-17T22:05:57.545Z,5.22
2023-04-17T22:08:24.438Z,5.45
2023-04-17T22:10:52.001Z,6.28
2023-04-17T22:13:18.877Z,5.20
2023-04-17T22:15:47.570Z,8.73
2023-04-17T22:18:14.439Z,7.05
2023-04-17T22:20:41.301Z,9.27
2023-04-17T22:23:08.177Z,5.97
2023-04-17T22:25:35.064Z,8.68
2023-04-17T22:28:01.960Z,6.60
2023-04-17T22:30:28.815Z,6.22
2023-04-17T22:32:57.115Z,7.78
2023-04-17T22:35:24.156Z,6.20
2023-04-17T22:37:51.041Z,4.78
2023-04-17T22:40:17.989Z,6.55
2023-04-17T22:42:44.872Z,3.67
2023-04-17T22:45:11.757Z,6.70
2023-04-17T22:47:38.730Z,4.65
2023-04-17T22:50:08.208Z,5.18
2023-04-17T22:52:35.068Z,4.05
2023-04-17T22:55:01.954Z,5.95
2023-04-17T22:57:28.825Z,5.43
2023-04-17T22:59:55.672Z,3.97
2023-04-17T23:02:22.616Z,3.00
2023-04-17T23:04:49.563Z,4.75
2023-04-17T23:07:17.835Z,7.78
2023-04-17T23:09:44.708Z,5.20
2023-04-17T23:12:11.563Z,5.30
2023-04-17T23:14:38.430Z,4.93
2023-04-17T23:17:05.307Z,7.03
2023-04-17T23:19:32.181Z,4.78
2023-04-17T23:21:59.089Z,3.53
2023-04-17T23:24:27.402Z,4.55
2023-04-17T23:26:54.289Z,3.10
2023-04-17T23:29:21.166Z,5.55
2023-04-17T23:31:48.220Z,4.28
2023-04-17T23:34:15.346Z,6.00
2023-04-17T23:36:42.436Z,4.32
2023-04-17T23:39:09.331Z,6.88
2023-04-17T23:41:37.586Z,4.68
2023-04-17T23:44:04.820Z,4.90
2023-04-17T23:46:31.733Z,3.47
2023-04-17T23:48:58.698Z,4.82
2023-04-17T23:51:25.601Z,3.92
2023-04-17T23:53:52.488Z,6.57
2023-04-17T23:56:19.358Z,5.00
2023-04-17T23:58:47.587Z,3.35
